Rodney, IA (51051)

6:57 AM CDT on July 26, 2014 (GMT -0500)
Castana (KIACASTA3) Elev 1099 ft | 42.08 °N, 95.89 °W | Change Station

Current weather conditions updated 0 second ago

Clear
Clear
69.3 °F
Feels Like 69.3 °F
N
0.0
Wind Variable Wind from ENE
Gusts 0.0 mph

Today is forecast to be nearly the same temperature as yesterday.

Today
High -- | Low -- °F
--% Chance of Precip.
Yesterday
High -- | Low -- °F
Precip. -- in
6:10 AM 8:49 PM
Waning Crescent, 0% visible
Pressure 29.78 in
Visibility 6.0 miles
Clouds Clear
Dew Point 69 °F
Humidity 98%
Rainfall 0.00 in
Snow Depth Not available.
UV 0 out of 12
Pollen 5.70 out of 12
Air Quality Not available.
Flu Activity Not available.
METAR KSUX 261152Z AUTO 00000KT 6SM BR CLR 22/21 A2981 RMK AO2 SLP084 T02170206 10239 20206 53005

More Conditions Fewer Conditions

Pressure 29.78 in
Visibility 6.0 miles
Clouds Clear
Dew Point 69 °F
Humidity 98%
Rainfall 0.00 in
Snow Depth Not available.
UV 0 out of 12
Pollen 5.70 out of 12
Air Quality Not available.
Flu Activity Not available.
METAR KSUX 261152Z AUTO 00000KT 6SM BR CLR 22/21 A2981 RMK AO2 SLP084 T02170206 10239 20206 53005

More Conditions Fewer Conditions

10-Day Weather Forecast

Almanac

Astronomy

Jul. 26, 2014 Rise Set
Actual Time 6:10 AM CDT 8:49 PM CDT
Civil Twilight 5:38 AM CDT 9:21 PM CDT
Nautical Twilight 4:57 AM CDT 10:01 PM CDT
Astronomical Twilight 4:11 AM CDT 10:47 PM CDT
Moon 6:05 AM CDT 8:22 PM CDT
Length of Visible Light 15h 42m
Length of Day
14h 38m
Tomorrow will be 1m 59s shorter.
Waning Crescent, 0% of the Moon is Illuminated
Today
Waning Crescent
Jul 26
New
Aug 3
First Quarter
Aug 10
Full
Aug 17
Last Quarter

Today's Extremes

State Highs State Lows

Community

WunderPhotos

Upload Photos

1,737,538 photos uploaded!

Nearby

Snow Depth

Station Depth Elevation
No new snow has been reported.

Earthquake Activity

City Distance Mag. Time & Date
No recent earthquake activity has been reported nearby.
Minimum magnitude displayed is 2.5.

Coastal Water Temperatures

Place Temperature
No Stations Reporting

Nearby Weather Stations

Station Location Temp. Dew Point Humidity Wind Precip. Elev Updated Type
HADS WEST FORK DITCH AT HORNICK IA, Rodney, IA 70 °F - - North  at  - 0.00 in / hr 1045 ft 6:00 AM CDT MADIS
Castana, Castana, IA 69.3 °F 69 °F 98% ENE  at  0.0 mph 0.00 in / hr 1099 ft 6:57 AM CDT Rapid Fire
The Danbury Review, Danbury, IA 68.0 °F 66 °F 94% SW  at  0.0 mph 0.00 in / hr 1162 ft 6:55 AM CDT Normal
MesoWest SALIX , Salix, IA 65 °F - - North  at  - 0.00 in / hr 1077 ft 5:35 AM CDT MADIS
MesoWest SHAGBARK HILLS , Correctionville, IA 69 °F 69 °F 98% South  at  0 mph 0.00 in / hr 1399 ft 5:00 AM CDT MADIS

Show More Stations Show Fewer Stations